sensor_id;sensor_type;location;lat;lon;timestamp;P1;durP1;ratioP1;P2;durP2;ratioP2
70270;SDS011;57680;54.292;18.598;2023-12-28T00:01:53;16.43;;;5.83;;
70270;SDS011;57680;54.292;18.598;2023-12-28T00:04:18;22.33;;;6.63;;
70270;SDS011;57680;54.292;18.598;2023-12-28T00:06:43;29.20;;;7.32;;
70270;SDS011;57680;54.292;18.598;2023-12-28T00:09:09;23.63;;;7.13;;
70270;SDS011;57680;54.292;18.598;2023-12-28T00:11:34;24.97;;;8.13;;
70270;SDS011;57680;54.292;18.598;2023-12-28T00:13:59;26.40;;;8.20;;
70270;SDS011;57680;54.292;18.598;2023-12-28T00:16:25;23.43;;;8.73;;
70270;SDS011;57680;54.292;18.598;2023-12-28T00:18:50;23.13;;;9.10;;
70270;SDS011;57680;54.292;18.598;2023-12-28T00:21:15;23.90;;;8.90;;
70270;SDS011;57680;54.292;18.598;2023-12-28T00:23:41;28.13;;;8.73;;
70270;SDS011;57680;54.292;18.598;2023-12-28T00:26:06;25.02;;;9.20;;
70270;SDS011;57680;54.292;18.598;2023-12-28T00:28:31;28.00;;;8.70;;
70270;SDS011;57680;54.292;18.598;2023-12-28T00:30:57;24.73;;;8.67;;
70270;SDS011;57680;54.292;18.598;2023-12-28T00:33:22;26.87;;;8.73;;
70270;SDS011;57680;54.292;18.598;2023-12-28T00:35:47;24.90;;;8.03;;
70270;SDS011;57680;54.292;18.598;2023-12-28T00:38:13;21.07;;;8.07;;
70270;SDS011;57680;54.292;18.598;2023-12-28T00:40:38;20.67;;;7.13;;
70270;SDS011;57680;54.292;18.598;2023-12-28T00:43:03;20.65;;;6.82;;
70270;SDS011;57680;54.292;18.598;2023-12-28T00:45:29;17.73;;;7.17;;
70270;SDS011;57680;54.292;18.598;2023-12-28T00:47:54;20.03;;;6.70;;
70270;SDS011;57680;54.292;18.598;2023-12-28T00:50:19;22.67;;;7.20;;
70270;SDS011;57680;54.292;18.598;2023-12-28T00:52:45;21.03;;;7.23;;
70270;SDS011;57680;54.292;18.598;2023-12-28T00:55:10;19.83;;;6.90;;
70270;SDS011;57680;54.292;18.598;2023-12-28T00:57:35;25.05;;;7.38;;
70270;SDS011;57680;54.292;18.598;2023-12-28T01:00:01;20.20;;;7.03;;
70270;SDS011;57680;54.292;18.598;2023-12-28T01:02:27;20.27;;;7.00;;
70270;SDS011;57680;54.292;18.598;2023-12-28T01:04:52;21.38;;;6.97;;
70270;SDS011;57680;54.292;18.598;2023-12-28T01:07:18;21.37;;;5.77;;
70270;SDS011;57680;54.292;18.598;2023-12-28T01:09:43;20.97;;;6.80;;
70270;SDS011;57680;54.292;18.598;2023-12-28T01:12:08;20.13;;;6.07;;
70270;SDS011;57680;54.292;18.598;2023-12-28T01:14:34;17.97;;;6.67;;
70270;SDS011;57680;54.292;18.598;2023-12-28T01:16:59;18.90;;;6.50;;
70270;SDS011;57680;54.292;18.598;2023-12-28T01:19:25;30.60;;;6.53;;
70270;SDS011;57680;54.292;18.598;2023-12-28T01:21:50;21.23;;;5.77;;
70270;SDS011;57680;54.292;18.598;2023-12-28T01:24:16;18.17;;;5.90;;
70270;SDS011;57680;54.292;18.598;2023-12-28T01:26:41;15.77;;;5.37;;
70270;SDS011;57680;54.292;18.598;2023-12-28T01:29:07;14.47;;;4.70;;
70270;SDS011;57680;54.292;18.598;2023-12-28T01:31:32;19.23;;;6.20;;
70270;SDS011;57680;54.292;18.598;2023-12-28T01:33:57;16.83;;;5.60;;
70270;SDS011;57680;54.292;18.598;2023-12-28T01:36:23;16.70;;;5.45;;
70270;SDS011;57680;54.292;18.598;2023-12-28T01:38:48;18.57;;;5.97;;
70270;SDS011;57680;54.292;18.598;2023-12-28T01:41:14;19.77;;;5.83;;
70270;SDS011;57680;54.292;18.598;2023-12-28T01:43:39;19.42;;;6.07;;
70270;SDS011;57680;54.292;18.598;2023-12-28T01:46:06;19.87;;;5.93;;
70270;SDS011;57680;54.292;18.598;2023-12-28T01:48:33;16.50;;;6.00;;
70270;SDS011;57680;54.292;18.598;2023-12-28T01:50:59;19.43;;;6.40;;
70270;SDS011;57680;54.292;18.598;2023-12-28T01:53:24;19.13;;;6.13;;
70270;SDS011;57680;54.292;18.598;2023-12-28T01:55:50;19.52;;;5.50;;
70270;SDS011;57680;54.292;18.598;2023-12-28T01:58:16;21.33;;;6.43;;
70270;SDS011;57680;54.292;18.598;2023-12-28T02:00:42;18.50;;;6.57;;
70270;SDS011;57680;54.292;18.598;2023-12-28T02:03:07;21.20;;;6.30;;
70270;SDS011;57680;54.292;18.598;2023-12-28T02:05:33;21.97;;;6.93;;
70270;SDS011;57680;54.292;18.598;2023-12-28T02:07:58;19.17;;;6.82;;
70270;SDS011;57680;54.292;18.598;2023-12-28T02:10:24;22.83;;;7.13;;
70270;SDS011;57680;54.292;18.598;2023-12-28T02:12:49;24.30;;;7.50;;
70270;SDS011;57680;54.292;18.598;2023-12-28T02:15:15;22.80;;;7.28;;
70270;SDS011;57680;54.292;18.598;2023-12-28T02:17:49;27.20;;;7.90;;
70270;SDS011;57680;54.292;18.598;2023-12-28T02:20:20;24.23;;;7.18;;
70270;SDS011;57680;54.292;18.598;2023-12-28T02:22:46;21.65;;;8.10;;
70270;SDS011;57680;54.292;18.598;2023-12-28T02:25:11;25.27;;;8.23;;
70270;SDS011;57680;54.292;18.598;2023-12-28T02:27:41;25.65;;;8.75;;
70270;SDS011;57680;54.292;18.598;2023-12-28T02:30:09;29.50;;;9.45;;
70270;SDS011;57680;54.292;18.598;2023-12-28T02:35:34;26.58;;;9.10;;
70270;SDS011;57680;54.292;18.598;2023-12-28T02:38:10;29.30;;;9.83;;
70270;SDS011;57680;54.292;18.598;2023-12-28T02:40:37;24.98;;;9.15;;
70270;SDS011;57680;54.292;18.598;2023-12-28T02:43:07;27.38;;;9.55;;
70270;SDS011;57680;54.292;18.598;2023-12-28T02:45:33;33.30;;;10.48;;
70270;SDS011;57680;54.292;18.598;2023-12-28T02:47:59;27.13;;;9.70;;
70270;SDS011;57680;54.292;18.598;2023-12-28T02:50:24;32.67;;;10.67;;
70270;SDS011;57680;54.292;18.598;2023-12-28T02:52:50;28.47;;;10.17;;
70270;SDS011;57680;54.292;18.598;2023-12-28T02:55:15;69.57;;;11.73;;
70270;SDS011;57680;54.292;18.598;2023-12-28T02:57:41;32.80;;;10.40;;
70270;SDS011;57680;54.292;18.598;2023-12-28T03:00:08;32.40;;;10.25;;
70270;SDS011;57680;54.292;18.598;2023-12-28T03:02:34;29.80;;;10.05;;
70270;SDS011;57680;54.292;18.598;2023-12-28T03:05:00;31.07;;;10.80;;
70270;SDS011;57680;54.292;18.598;2023-12-28T03:07:26;35.30;;;11.20;;
70270;SDS011;57680;54.292;18.598;2023-12-28T03:09:51;32.37;;;11.63;;
70270;SDS011;57680;54.292;18.598;2023-12-28T03:12:16;30.97;;;11.47;;
70270;SDS011;57680;54.292;18.598;2023-12-28T03:14:42;30.03;;;11.33;;
70270;SDS011;57680;54.292;18.598;2023-12-28T03:17:07;34.17;;;12.07;;
70270;SDS011;57680;54.292;18.598;2023-12-28T03:19:32;31.70;;;11.80;;
70270;SDS011;57680;54.292;18.598;2023-12-28T03:21:58;36.70;;;12.10;;
70270;SDS011;57680;54.292;18.598;2023-12-28T03:24:23;35.90;;;11.53;;
70270;SDS011;57680;54.292;18.598;2023-12-28T03:26:48;35.53;;;12.53;;
70270;SDS011;57680;54.292;18.598;2023-12-28T03:29:14;32.40;;;11.03;;
70270;SDS011;57680;54.292;18.598;2023-12-28T03:31:39;30.23;;;11.50;;
70270;SDS011;57680;54.292;18.598;2023-12-28T03:34:05;35.27;;;12.43;;
70270;SDS011;57680;54.292;18.598;2023-12-28T03:36:31;31.70;;;12.40;;
70270;SDS011;57680;54.292;18.598;2023-12-28T03:38:56;34.57;;;12.17;;
70270;SDS011;57680;54.292;18.598;2023-12-28T03:41:21;29.70;;;11.38;;
70270;SDS011;57680;54.292;18.598;2023-12-28T03:43:47;31.40;;;11.67;;
70270;SDS011;57680;54.292;18.598;2023-12-28T03:46:12;33.97;;;11.93;;
70270;SDS011;57680;54.292;18.598;2023-12-28T03:48:38;33.28;;;11.65;;
70270;SDS011;57680;54.292;18.598;2023-12-28T03:51:04;34.20;;;12.13;;
70270;SDS011;57680;54.292;18.598;2023-12-28T03:53:30;33.97;;;12.17;;
70270;SDS011;57680;54.292;18.598;2023-12-28T03:55:55;29.97;;;11.43;;
70270;SDS011;57680;54.292;18.598;2023-12-28T03:58:21;32.67;;;11.55;;
70270;SDS011;57680;54.292;18.598;2023-12-28T04:00:46;30.60;;;10.53;;
70270;SDS011;57680;54.292;18.598;2023-12-28T04:03:12;31.87;;;11.10;;
70270;SDS011;57680;54.292;18.598;2023-12-28T04:05:37;34.03;;;11.37;;
70270;SDS011;57680;54.292;18.598;2023-12-28T04:08:02;30.77;;;10.63;;
70270;SDS011;57680;54.292;18.598;2023-12-28T04:10:29;26.13;;;10.23;;
70270;SDS011;57680;54.292;18.598;2023-12-28T04:12:58;34.38;;;11.77;;
70270;SDS011;57680;54.292;18.598;2023-12-28T04:15:23;30.23;;;10.23;;
70270;SDS011;57680;54.292;18.598;2023-12-28T04:17:49;31.23;;;11.03;;
70270;SDS011;57680;54.292;18.598;2023-12-28T04:20:14;30.20;;;11.50;;
70270;SDS011;57680;54.292;18.598;2023-12-28T04:22:39;30.57;;;10.20;;
70270;SDS011;57680;54.292;18.598;2023-12-28T04:25:05;27.63;;;9.83;;
70270;SDS011;57680;54.292;18.598;2023-12-28T04:27:30;28.20;;;10.23;;
70270;SDS011;57680;54.292;18.598;2023-12-28T04:29:56;31.03;;;9.47;;
70270;SDS011;57680;54.292;18.598;2023-12-28T04:32:21;29.70;;;10.90;;
70270;SDS011;57680;54.292;18.598;2023-12-28T04:34:46;24.90;;;9.23;;
70270;SDS011;57680;54.292;18.598;2023-12-28T04:37:12;23.77;;;8.60;;
70270;SDS011;57680;54.292;18.598;2023-12-28T04:39:37;27.75;;;9.63;;
70270;SDS011;57680;54.292;18.598;2023-12-28T04:42:03;25.10;;;8.37;;
70270;SDS011;57680;54.292;18.598;2023-12-28T04:44:29;24.90;;;8.80;;
70270;SDS011;57680;54.292;18.598;2023-12-28T04:46:54;27.73;;;8.77;;
70270;SDS011;57680;54.292;18.598;2023-12-28T04:49:19;27.23;;;8.23;;
70270;SDS011;57680;54.292;18.598;2023-12-28T04:51:45;23.73;;;7.83;;
70270;SDS011;57680;54.292;18.598;2023-12-28T04:54:10;23.47;;;8.17;;
70270;SDS011;57680;54.292;18.598;2023-12-28T04:56:35;26.80;;;8.40;;
70270;SDS011;57680;54.292;18.598;2023-12-28T04:59:01;25.80;;;8.00;;
70270;SDS011;57680;54.292;18.598;2023-12-28T05:01:26;22.67;;;8.15;;
70270;SDS011;57680;54.292;18.598;2023-12-28T05:03:51;21.90;;;8.10;;
70270;SDS011;57680;54.292;18.598;2023-12-28T05:06:17;22.37;;;7.10;;
70270;SDS011;57680;54.292;18.598;2023-12-28T05:08:42;23.17;;;7.20;;
70270;SDS011;57680;54.292;18.598;2023-12-28T05:11:07;19.97;;;7.07;;
70270;SDS011;57680;54.292;18.598;2023-12-28T05:13:33;21.53;;;6.57;;
70270;SDS011;57680;54.292;18.598;2023-12-28T05:15:58;21.53;;;6.80;;
70270;SDS011;57680;54.292;18.598;2023-12-28T05:18:23;19.43;;;6.97;;
70270;SDS011;57680;54.292;18.598;2023-12-28T05:20:49;23.47;;;7.90;;
70270;SDS011;57680;54.292;18.598;2023-12-28T05:23:14;20.85;;;7.00;;
70270;SDS011;57680;54.292;18.598;2023-12-28T05:25:39;25.80;;;7.13;;
70270;SDS011;57680;54.292;18.598;2023-12-28T05:28:05;20.37;;;6.43;;
70270;SDS011;57680;54.292;18.598;2023-12-28T05:30:30;21.10;;;7.77;;
70270;SDS011;57680;54.292;18.598;2023-12-28T05:32:56;24.47;;;7.00;;
70270;SDS011;57680;54.292;18.598;2023-12-28T05:35:21;18.53;;;6.73;;
70270;SDS011;57680;54.292;18.598;2023-12-28T05:37:46;21.23;;;5.93;;
70270;SDS011;57680;54.292;18.598;2023-12-28T05:40:11;22.87;;;6.70;;
70270;SDS011;57680;54.292;18.598;2023-12-28T05:42:37;19.17;;;6.33;;
70270;SDS011;57680;54.292;18.598;2023-12-28T05:45:02;20.40;;;6.13;;
70270;SDS011;57680;54.292;18.598;2023-12-28T05:47:28;18.07;;;6.37;;
70270;SDS011;57680;54.292;18.598;2023-12-28T05:49:53;15.07;;;5.30;;
70270;SDS011;57680;54.292;18.598;2023-12-28T05:52:19;19.27;;;6.35;;
70270;SDS011;57680;54.292;18.598;2023-12-28T05:54:44;17.27;;;6.27;;
70270;SDS011;57680;54.292;18.598;2023-12-28T05:57:10;17.85;;;6.60;;
70270;SDS011;57680;54.292;18.598;2023-12-28T05:59:38;20.97;;;7.13;;
70270;SDS011;57680;54.292;18.598;2023-12-28T06:02:04;21.23;;;6.43;;
70270;SDS011;57680;54.292;18.598;2023-12-28T06:04:29;20.87;;;6.17;;
70270;SDS011;57680;54.292;18.598;2023-12-28T06:06:54;20.37;;;6.90;;
70270;SDS011;57680;54.292;18.598;2023-12-28T06:09:20;19.60;;;7.10;;
70270;SDS011;57680;54.292;18.598;2023-12-28T06:11:45;20.30;;;8.03;;
70270;SDS011;57680;54.292;18.598;2023-12-28T06:14:10;20.83;;;7.13;;
70270;SDS011;57680;54.292;18.598;2023-12-28T06:16:35;23.97;;;7.40;;
70270;SDS011;57680;54.292;18.598;2023-12-28T06:19:01;22.83;;;6.93;;
70270;SDS011;57680;54.292;18.598;2023-12-28T06:21:26;20.17;;;7.30;;
70270;SDS011;57680;54.292;18.598;2023-12-28T06:23:51;22.30;;;7.83;;
70270;SDS011;57680;54.292;18.598;2023-12-28T06:26:17;19.33;;;7.47;;
70270;SDS011;57680;54.292;18.598;2023-12-28T06:28:42;19.83;;;7.50;;
70270;SDS011;57680;54.292;18.598;2023-12-28T06:31:07;22.07;;;7.80;;
70270;SDS011;57680;54.292;18.598;2023-12-28T06:33:33;21.10;;;7.73;;
70270;SDS011;57680;54.292;18.598;2023-12-28T06:36:04;23.37;;;7.57;;
70270;SDS011;57680;54.292;18.598;2023-12-28T06:38:30;22.30;;;7.82;;
70270;SDS011;57680;54.292;18.598;2023-12-28T06:40:55;23.67;;;8.03;;
70270;SDS011;57680;54.292;18.598;2023-12-28T06:43:21;24.40;;;7.47;;
70270;SDS011;57680;54.292;18.598;2023-12-28T06:45:46;19.33;;;7.17;;
70270;SDS011;57680;54.292;18.598;2023-12-28T06:48:11;18.87;;;7.47;;
70270;SDS011;57680;54.292;18.598;2023-12-28T06:50:37;25.10;;;9.37;;
70270;SDS011;57680;54.292;18.598;2023-12-28T06:53:02;20.10;;;8.47;;
70270;SDS011;57680;54.292;18.598;2023-12-28T06:55:27;24.70;;;8.85;;
70270;SDS011;57680;54.292;18.598;2023-12-28T06:57:53;21.73;;;7.57;;
70270;SDS011;57680;54.292;18.598;2023-12-28T07:00:18;27.37;;;8.97;;
70270;SDS011;57680;54.292;18.598;2023-12-28T07:02:44;25.63;;;10.13;;
70270;SDS011;57680;54.292;18.598;2023-12-28T07:05:09;25.47;;;8.80;;
70270;SDS011;57680;54.292;18.598;2023-12-28T07:07:34;20.63;;;8.13;;
70270;SDS011;57680;54.292;18.598;2023-12-28T07:10:00;22.40;;;7.90;;
70270;SDS011;57680;54.292;18.598;2023-12-28T07:12:25;22.70;;;8.30;;
70270;SDS011;57680;54.292;18.598;2023-12-28T07:14:50;20.13;;;7.97;;
70270;SDS011;57680;54.292;18.598;2023-12-28T07:17:16;21.37;;;7.60;;
70270;SDS011;57680;54.292;18.598;2023-12-28T07:19:41;20.33;;;7.77;;
70270;SDS011;57680;54.292;18.598;2023-12-28T07:22:06;22.07;;;7.10;;
70270;SDS011;57680;54.292;18.598;2023-12-28T07:24:32;21.03;;;7.47;;
70270;SDS011;57680;54.292;18.598;2023-12-28T07:26:57;20.30;;;7.07;;
70270;SDS011;57680;54.292;18.598;2023-12-28T07:29:22;20.17;;;7.17;;
70270;SDS011;57680;54.292;18.598;2023-12-28T07:31:48;17.23;;;6.63;;
70270;SDS011;57680;54.292;18.598;2023-12-28T07:34:13;19.53;;;7.20;;
70270;SDS011;57680;54.292;18.598;2023-12-28T07:36:38;18.83;;;6.77;;
70270;SDS011;57680;54.292;18.598;2023-12-28T07:39:04;17.30;;;6.70;;
70270;SDS011;57680;54.292;18.598;2023-12-28T07:41:29;20.77;;;7.20;;
70270;SDS011;57680;54.292;18.598;2023-12-28T07:43:54;19.73;;;6.60;;
70270;SDS011;57680;54.292;18.598;2023-12-28T07:46:20;18.63;;;5.97;;
70270;SDS011;57680;54.292;18.598;2023-12-28T07:48:45;22.40;;;8.83;;
70270;SDS011;57680;54.292;18.598;2023-12-28T07:51:12;17.80;;;6.53;;
70270;SDS011;57680;54.292;18.598;2023-12-28T07:53:38;19.33;;;6.20;;
70270;SDS011;57680;54.292;18.598;2023-12-28T07:56:03;15.57;;;5.30;;
70270;SDS011;57680;54.292;18.598;2023-12-28T07:58:29;17.17;;;5.70;;
70270;SDS011;57680;54.292;18.598;2023-12-28T08:00:54;19.10;;;6.93;;
70270;SDS011;57680;54.292;18.598;2023-12-28T08:03:20;17.10;;;6.53;;
70270;SDS011;57680;54.292;18.598;2023-12-28T08:05:45;13.47;;;5.60;;
70270;SDS011;57680;54.292;18.598;2023-12-28T08:08:10;15.97;;;5.80;;
70270;SDS011;57680;54.292;18.598;2023-12-28T08:10:36;16.23;;;6.10;;
70270;SDS011;57680;54.292;18.598;2023-12-28T08:13:01;18.08;;;6.00;;
70270;SDS011;57680;54.292;18.598;2023-12-28T08:15:27;16.03;;;6.27;;
70270;SDS011;57680;54.292;18.598;2023-12-28T08:17:52;15.10;;;5.80;;
70270;SDS011;57680;54.292;18.598;2023-12-28T08:20:17;15.13;;;6.00;;
70270;SDS011;57680;54.292;18.598;2023-12-28T08:22:43;15.03;;;6.67;;
70270;SDS011;57680;54.292;18.598;2023-12-28T08:25:08;17.95;;;6.95;;
70270;SDS011;57680;54.292;18.598;2023-12-28T08:27:33;16.70;;;6.30;;
70270;SDS011;57680;54.292;18.598;2023-12-28T08:29:59;20.87;;;7.00;;
70270;SDS011;57680;54.292;18.598;2023-12-28T08:32:24;17.83;;;6.67;;
70270;SDS011;57680;54.292;18.598;2023-12-28T08:34:49;17.70;;;6.43;;
70270;SDS011;57680;54.292;18.598;2023-12-28T08:37:15;18.10;;;6.80;;
70270;SDS011;57680;54.292;18.598;2023-12-28T08:39:40;12.33;;;5.50;;
70270;SDS011;57680;54.292;18.598;2023-12-28T08:42:06;16.73;;;5.33;;
70270;SDS011;57680;54.292;18.598;2023-12-28T08:44:31;15.80;;;5.73;;
70270;SDS011;57680;54.292;18.598;2023-12-28T08:46:56;14.67;;;6.50;;
70270;SDS011;57680;54.292;18.598;2023-12-28T08:49:22;14.97;;;6.20;;
70270;SDS011;57680;54.292;18.598;2023-12-28T08:51:47;16.33;;;6.63;;
70270;SDS011;57680;54.292;18.598;2023-12-28T08:54:13;16.45;;;6.05;;
70270;SDS011;57680;54.292;18.598;2023-12-28T08:56:38;17.33;;;7.30;;
70270;SDS011;57680;54.292;18.598;2023-12-28T08:59:03;16.40;;;6.47;;
70270;SDS011;57680;54.292;18.598;2023-12-28T09:01:29;17.47;;;6.40;;
70270;SDS011;57680;54.292;18.598;2023-12-28T09:03:54;20.83;;;6.88;;
70270;SDS011;57680;54.292;18.598;2023-12-28T09:06:20;14.57;;;5.77;;
70270;SDS011;57680;54.292;18.598;2023-12-28T09:08:48;13.68;;;5.63;;
70270;SDS011;57680;54.292;18.598;2023-12-28T09:11:15;17.23;;;6.23;;
70270;SDS011;57680;54.292;18.598;2023-12-28T09:13:40;18.45;;;6.47;;
70270;SDS011;57680;54.292;18.598;2023-12-28T09:16:06;16.00;;;6.30;;
70270;SDS011;57680;54.292;18.598;2023-12-28T09:18:33;19.77;;;6.90;;
70270;SDS011;57680;54.292;18.598;2023-12-28T09:20:58;16.27;;;6.40;;
70270;SDS011;57680;54.292;18.598;2023-12-28T09:23:24;16.33;;;6.13;;
70270;SDS011;57680;54.292;18.598;2023-12-28T09:25:49;18.17;;;7.47;;
70270;SDS011;57680;54.292;18.598;2023-12-28T09:28:14;14.83;;;6.30;;
70270;SDS011;57680;54.292;18.598;2023-12-28T09:30:40;15.57;;;6.67;;
70270;SDS011;57680;54.292;18.598;2023-12-28T09:33:05;15.65;;;6.38;;
70270;SDS011;57680;54.292;18.598;2023-12-28T09:35:31;13.77;;;6.23;;
70270;SDS011;57680;54.292;18.598;2023-12-28T09:37:57;18.87;;;6.77;;
70270;SDS011;57680;54.292;18.598;2023-12-28T09:40:24;14.55;;;6.05;;
70270;SDS011;57680;54.292;18.598;2023-12-28T09:45:45;16.30;;;6.25;;
70270;SDS011;57680;54.292;18.598;2023-12-28T09:48:12;14.77;;;6.00;;
70270;SDS011;57680;54.292;18.598;2023-12-28T09:50:40;16.83;;;6.50;;
70270;SDS011;57680;54.292;18.598;2023-12-28T09:53:05;17.03;;;6.20;;
70270;SDS011;57680;54.292;18.598;2023-12-28T09:55:31;15.27;;;6.33;;
70270;SDS011;57680;54.292;18.598;2023-12-28T09:57:56;17.73;;;6.27;;
70270;SDS011;57680;54.292;18.598;2023-12-28T10:00:25;16.17;;;6.13;;
70270;SDS011;57680;54.292;18.598;2023-12-28T10:02:50;17.93;;;6.57;;
70270;SDS011;57680;54.292;18.598;2023-12-28T10:05:16;14.00;;;5.50;;
70270;SDS011;57680;54.292;18.598;2023-12-28T10:07:42;15.50;;;6.07;;
70270;SDS011;57680;54.292;18.598;2023-12-28T10:10:08;16.50;;;6.45;;
70270;SDS011;57680;54.292;18.598;2023-12-28T10:12:34;14.40;;;6.20;;
70270;SDS011;57680;54.292;18.598;2023-12-28T10:15:00;14.63;;;6.53;;
70270;SDS011;57680;54.292;18.598;2023-12-28T10:17:25;13.43;;;5.43;;
70270;SDS011;57680;54.292;18.598;2023-12-28T10:19:52;16.13;;;6.23;;
70270;SDS011;57680;54.292;18.598;2023-12-28T10:22:18;14.93;;;6.28;;
70270;SDS011;57680;54.292;18.598;2023-12-28T10:24:44;17.08;;;6.45;;
70270;SDS011;57680;54.292;18.598;2023-12-28T10:27:09;15.10;;;5.90;;
70270;SDS011;57680;54.292;18.598;2023-12-28T10:29:35;15.90;;;6.17;;
70270;SDS011;57680;54.292;18.598;2023-12-28T10:32:01;14.23;;;6.25;;
70270;SDS011;57680;54.292;18.598;2023-12-28T10:34:26;14.75;;;5.90;;
70270;SDS011;57680;54.292;18.598;2023-12-28T10:36:52;17.10;;;6.20;;
70270;SDS011;57680;54.292;18.598;2023-12-28T10:39:19;17.57;;;6.23;;
70270;SDS011;57680;54.292;18.598;2023-12-28T10:41:46;15.85;;;7.10;;
70270;SDS011;57680;54.292;18.598;2023-12-28T10:44:16;14.18;;;6.28;;
70270;SDS011;57680;54.292;18.598;2023-12-28T10:46:44;14.98;;;6.05;;
70270;SDS011;57680;54.292;18.598;2023-12-28T10:49:13;14.67;;;6.00;;
70270;SDS011;57680;54.292;18.598;2023-12-28T10:51:41;15.00;;;6.30;;
70270;SDS011;57680;54.292;18.598;2023-12-28T10:54:19;14.20;;;6.22;;
70270;SDS011;57680;54.292;18.598;2023-12-28T10:57:03;18.38;;;6.97;;
70270;SDS011;57680;54.292;18.598;2023-12-28T11:02:35;16.73;;;6.53;;
70270;SDS011;57680;54.292;18.598;2023-12-28T11:05:03;13.07;;;6.43;;
70270;SDS011;57680;54.292;18.598;2023-12-28T11:07:30;16.98;;;6.82;;
70270;SDS011;57680;54.292;18.598;2023-12-28T11:09:57;18.48;;;6.70;;
70270;SDS011;57680;54.292;18.598;2023-12-28T11:12:25;14.50;;;7.00;;
70270;SDS011;57680;54.292;18.598;2023-12-28T11:14:52;16.63;;;5.83;;
70270;SDS011;57680;54.292;18.598;2023-12-28T11:17:18;14.23;;;6.05;;
70270;SDS011;57680;54.292;18.598;2023-12-28T11:19:45;12.85;;;5.47;;
70270;SDS011;57680;54.292;18.598;2023-12-28T11:22:12;13.13;;;4.75;;
70270;SDS011;57680;54.292;18.598;2023-12-28T11:24:38;13.25;;;5.30;;
70270;SDS011;57680;54.292;18.598;2023-12-28T11:27:04;12.93;;;5.50;;
70270;SDS011;57680;54.292;18.598;2023-12-28T11:29:30;13.00;;;4.90;;
70270;SDS011;57680;54.292;18.598;2023-12-28T11:31:56;12.60;;;5.97;;
70270;SDS011;57680;54.292;18.598;2023-12-28T11:34:27;13.77;;;5.30;;
70270;SDS011;57680;54.292;18.598;2023-12-28T11:36:54;15.70;;;6.00;;
70270;SDS011;57680;54.292;18.598;2023-12-28T11:39:30;11.57;;;4.97;;
70270;SDS011;57680;54.292;18.598;2023-12-28T11:42:04;12.40;;;5.00;;
70270;SDS011;57680;54.292;18.598;2023-12-28T11:44:40;12.18;;;5.32;;
70270;SDS011;57680;54.292;18.598;2023-12-28T11:47:13;12.60;;;5.05;;
70270;SDS011;57680;54.292;18.598;2023-12-28T11:49:40;14.00;;;5.13;;
70270;SDS011;57680;54.292;18.598;2023-12-28T11:52:06;10.45;;;4.57;;
70270;SDS011;57680;54.292;18.598;2023-12-28T11:54:32;10.68;;;4.55;;
70270;SDS011;57680;54.292;18.598;2023-12-28T11:56:58;12.93;;;4.60;;
70270;SDS011;57680;54.292;18.598;2023-12-28T11:59:23;10.07;;;4.10;;
70270;SDS011;57680;54.292;18.598;2023-12-28T12:01:52;9.17;;;3.87;;
70270;SDS011;57680;54.292;18.598;2023-12-28T12:04:18;9.63;;;4.13;;
70270;SDS011;57680;54.292;18.598;2023-12-28T12:06:47;9.73;;;4.15;;
70270;SDS011;57680;54.292;18.598;2023-12-28T12:09:13;10.40;;;4.10;;
70270;SDS011;57680;54.292;18.598;2023-12-28T12:11:39;12.10;;;4.20;;
70270;SDS011;57680;54.292;18.598;2023-12-28T12:14:11;8.73;;;3.80;;
70270;SDS011;57680;54.292;18.598;2023-12-28T12:16:37;9.38;;;3.53;;
70270;SDS011;57680;54.292;18.598;2023-12-28T12:19:05;11.73;;;3.95;;
70270;SDS011;57680;54.292;18.598;2023-12-28T12:21:32;7.57;;;3.63;;
70270;SDS011;57680;54.292;18.598;2023-12-28T12:23:58;9.43;;;3.88;;
70270;SDS011;57680;54.292;18.598;2023-12-28T12:26:23;9.90;;;3.97;;
70270;SDS011;57680;54.292;18.598;2023-12-28T12:28:48;9.13;;;3.80;;
70270;SDS011;57680;54.292;18.598;2023-12-28T12:31:14;8.17;;;3.67;;
70270;SDS011;57680;54.292;18.598;2023-12-28T12:33:40;10.57;;;3.90;;
70270;SDS011;57680;54.292;18.598;2023-12-28T12:36:06;10.57;;;3.60;;
70270;SDS011;57680;54.292;18.598;2023-12-28T12:38:32;10.00;;;4.10;;
70270;SDS011;57680;54.292;18.598;2023-12-28T12:40:58;8.57;;;3.60;;
70270;SDS011;57680;54.292;18.598;2023-12-28T12:43:23;6.83;;;3.57;;
70270;SDS011;57680;54.292;18.598;2023-12-28T12:45:49;10.93;;;3.88;;
70270;SDS011;57680;54.292;18.598;2023-12-28T12:48:14;12.53;;;4.27;;
70270;SDS011;57680;54.292;18.598;2023-12-28T12:50:40;13.13;;;4.05;;
70270;SDS011;57680;54.292;18.598;2023-12-28T12:53:05;10.03;;;3.57;;
70270;SDS011;57680;54.292;18.598;2023-12-28T12:55:31;10.20;;;3.43;;
70270;SDS011;57680;54.292;18.598;2023-12-28T12:57:57;10.10;;;3.60;;
70270;SDS011;57680;54.292;18.598;2023-12-28T13:00:23;9.13;;;3.85;;
70270;SDS011;57680;54.292;18.598;2023-12-28T13:02:49;10.13;;;3.90;;
70270;SDS011;57680;54.292;18.598;2023-12-28T13:05:15;7.40;;;3.65;;
70270;SDS011;57680;54.292;18.598;2023-12-28T13:07:40;9.93;;;3.53;;
70270;SDS011;57680;54.292;18.598;2023-12-28T13:10:05;10.25;;;3.92;;
70270;SDS011;57680;54.292;18.598;2023-12-28T13:12:31;10.10;;;3.60;;
70270;SDS011;57680;54.292;18.598;2023-12-28T13:14:56;9.07;;;3.60;;
70270;SDS011;57680;54.292;18.598;2023-12-28T13:17:22;10.93;;;3.93;;
70270;SDS011;57680;54.292;18.598;2023-12-28T13:19:47;10.38;;;4.05;;
70270;SDS011;57680;54.292;18.598;2023-12-28T13:22:13;10.47;;;4.43;;
70270;SDS011;57680;54.292;18.598;2023-12-28T13:24:38;9.20;;;3.77;;
70270;SDS011;57680;54.292;18.598;2023-12-28T13:27:03;8.23;;;3.67;;
70270;SDS011;57680;54.292;18.598;2023-12-28T13:29:29;10.97;;;4.40;;
70270;SDS011;57680;54.292;18.598;2023-12-28T13:31:54;11.00;;;4.63;;
70270;SDS011;57680;54.292;18.598;2023-12-28T13:34:19;10.83;;;4.60;;
70270;SDS011;57680;54.292;18.598;2023-12-28T13:36:45;10.47;;;4.10;;
70270;SDS011;57680;54.292;18.598;2023-12-28T13:39:10;10.27;;;4.80;;
70270;SDS011;57680;54.292;18.598;2023-12-28T13:41:36;12.73;;;4.63;;
70270;SDS011;57680;54.292;18.598;2023-12-28T13:44:02;10.15;;;4.40;;
70270;SDS011;57680;54.292;18.598;2023-12-28T13:46:28;10.13;;;4.28;;
70270;SDS011;57680;54.292;18.598;2023-12-28T13:48:53;11.43;;;4.40;;
70270;SDS011;57680;54.292;18.598;2023-12-28T13:51:19;8.77;;;4.07;;
70270;SDS011;57680;54.292;18.598;2023-12-28T13:53:44;10.97;;;4.00;;
70270;SDS011;57680;54.292;18.598;2023-12-28T13:56:10;11.07;;;3.95;;
70270;SDS011;57680;54.292;18.598;2023-12-28T13:58:35;11.50;;;4.10;;
70270;SDS011;57680;54.292;18.598;2023-12-28T14:01:00;10.53;;;5.00;;
70270;SDS011;57680;54.292;18.598;2023-12-28T14:03:26;12.30;;;5.07;;
70270;SDS011;57680;54.292;18.598;2023-12-28T14:05:51;11.20;;;5.40;;
70270;SDS011;57680;54.292;18.598;2023-12-28T14:08:16;13.20;;;4.43;;
70270;SDS011;57680;54.292;18.598;2023-12-28T14:10:42;10.63;;;4.43;;
70270;SDS011;57680;54.292;18.598;2023-12-28T14:13:07;10.27;;;5.00;;
70270;SDS011;57680;54.292;18.598;2023-12-28T14:15:33;12.13;;;4.80;;
70270;SDS011;57680;54.292;18.598;2023-12-28T14:17:58;11.83;;;4.20;;
70270;SDS011;57680;54.292;18.598;2023-12-28T14:20:23;10.07;;;4.80;;
70270;SDS011;57680;54.292;18.598;2023-12-28T14:22:49;11.77;;;5.53;;